sensor_id;sensor_type;location;lat;lon;timestamp;P1;durP1;ratioP1;P2;durP2;ratioP2
50789;SDS011;37287;47.554;7.844;2023-10-19T00:00:24;17.42;;;13.07;;
50789;SDS011;37287;47.554;7.844;2023-10-19T00:02:51;15.85;;;12.65;;
50789;SDS011;37287;47.554;7.844;2023-10-19T00:05:18;14.40;;;11.88;;
50789;SDS011;37287;47.554;7.844;2023-10-19T00:07:50;15.25;;;12.30;;
50789;SDS011;37287;47.554;7.844;2023-10-19T00:10:19;12.90;;;11.00;;
50789;SDS011;37287;47.554;7.844;2023-10-19T00:12:47;13.80;;;11.50;;
50789;SDS011;37287;47.554;7.844;2023-10-19T00:15:26;12.95;;;10.70;;
50789;SDS011;37287;47.554;7.844;2023-10-19T00:17:57;16.77;;;10.63;;
50789;SDS011;37287;47.554;7.844;2023-10-19T00:20:34;16.10;;;11.27;;
50789;SDS011;37287;47.554;7.844;2023-10-19T00:23:14;14.32;;;11.02;;
50789;SDS011;37287;47.554;7.844;2023-10-19T00:25:45;13.68;;;11.45;;
50789;SDS011;37287;47.554;7.844;2023-10-19T00:28:17;13.20;;;10.95;;
50789;SDS011;37287;47.554;7.844;2023-10-19T00:30:45;17.27;;;12.80;;
50789;SDS011;37287;47.554;7.844;2023-10-19T00:33:16;15.73;;;12.00;;
50789;SDS011;37287;47.554;7.844;2023-10-19T00:35:52;17.23;;;13.57;;
50789;SDS011;37287;47.554;7.844;2023-10-19T00:38:27;15.35;;;11.45;;
50789;SDS011;37287;47.554;7.844;2023-10-19T00:40:54;13.35;;;10.98;;
50789;SDS011;37287;47.554;7.844;2023-10-19T00:43:49;12.60;;;10.73;;
50789;SDS011;37287;47.554;7.844;2023-10-19T00:46:18;15.60;;;11.02;;
50789;SDS011;37287;47.554;7.844;2023-10-19T00:48:55;10.70;;;9.25;;
50789;SDS011;37287;47.554;7.844;2023-10-19T00:51:29;14.18;;;9.60;;
50789;SDS011;37287;47.554;7.844;2023-10-19T00:56:46;13.95;;;10.50;;
50789;SDS011;37287;47.554;7.844;2023-10-19T00:59:16;11.95;;;10.63;;
50789;SDS011;37287;47.554;7.844;2023-10-19T01:01:46;12.73;;;10.57;;
50789;SDS011;37287;47.554;7.844;2023-10-19T01:04:16;11.45;;;10.25;;
50789;SDS011;37287;47.554;7.844;2023-10-19T01:06:49;11.25;;;9.23;;
50789;SDS011;37287;47.554;7.844;2023-10-19T01:09:38;17.15;;;13.23;;
50789;SDS011;37287;47.554;7.844;2023-10-19T01:12:07;12.27;;;9.65;;
50789;SDS011;37287;47.554;7.844;2023-10-19T01:15:05;11.77;;;10.13;;
50789;SDS011;37287;47.554;7.844;2023-10-19T01:17:40;16.00;;;10.80;;
50789;SDS011;37287;47.554;7.844;2023-10-19T01:20:16;14.30;;;9.65;;
50789;SDS011;37287;47.554;7.844;2023-10-19T01:22:57;16.02;;;10.82;;
50789;SDS011;37287;47.554;7.844;2023-10-19T01:25:43;11.07;;;8.85;;
50789;SDS011;37287;47.554;7.844;2023-10-19T01:28:32;13.25;;;10.43;;
50789;SDS011;37287;47.554;7.844;2023-10-19T01:31:19;12.20;;;9.27;;
50789;SDS011;37287;47.554;7.844;2023-10-19T01:33:58;15.65;;;11.43;;
50789;SDS011;37287;47.554;7.844;2023-10-19T01:36:29;15.15;;;11.75;;
50789;SDS011;37287;47.554;7.844;2023-10-19T01:39:04;15.95;;;11.52;;
50789;SDS011;37287;47.554;7.844;2023-10-19T01:41:36;13.88;;;10.98;;
50789;SDS011;37287;47.554;7.844;2023-10-19T01:44:03;14.65;;;11.55;;
50789;SDS011;37287;47.554;7.844;2023-10-19T01:46:35;16.90;;;12.32;;
50789;SDS011;37287;47.554;7.844;2023-10-19T01:49:03;14.20;;;11.52;;
50789;SDS011;37287;47.554;7.844;2023-10-19T01:51:31;14.98;;;10.98;;
50789;SDS011;37287;47.554;7.844;2023-10-19T01:54:04;12.35;;;9.85;;
50789;SDS011;37287;47.554;7.844;2023-10-19T01:56:32;11.75;;;9.55;;
50789;SDS011;37287;47.554;7.844;2023-10-19T01:59:02;11.43;;;9.55;;
50789;SDS011;37287;47.554;7.844;2023-10-19T02:01:37;14.30;;;10.80;;
50789;SDS011;37287;47.554;7.844;2023-10-19T02:04:08;12.60;;;10.60;;
50789;SDS011;37287;47.554;7.844;2023-10-19T02:06:36;13.68;;;10.68;;
50789;SDS011;37287;47.554;7.844;2023-10-19T02:11:56;12.90;;;11.02;;
50789;SDS011;37287;47.554;7.844;2023-10-19T02:14:26;15.38;;;11.40;;
50789;SDS011;37287;47.554;7.844;2023-10-19T02:16:58;13.35;;;10.27;;
50789;SDS011;37287;47.554;7.844;2023-10-19T02:19:28;15.05;;;10.20;;
50789;SDS011;37287;47.554;7.844;2023-10-19T02:21:58;10.00;;;8.98;;
50789;SDS011;37287;47.554;7.844;2023-10-19T02:24:26;10.57;;;8.98;;
50789;SDS011;37287;47.554;7.844;2023-10-19T02:26:56;12.25;;;9.85;;
50789;SDS011;37287;47.554;7.844;2023-10-19T02:29:23;11.63;;;9.68;;
50789;SDS011;37287;47.554;7.844;2023-10-19T02:31:52;11.93;;;10.25;;
50789;SDS011;37287;47.554;7.844;2023-10-19T02:34:23;12.75;;;9.88;;
50789;SDS011;37287;47.554;7.844;2023-10-19T02:36:50;12.23;;;10.63;;
50789;SDS011;37287;47.554;7.844;2023-10-19T02:39:17;10.68;;;9.35;;
50789;SDS011;37287;47.554;7.844;2023-10-19T02:41:46;9.82;;;8.18;;
50789;SDS011;37287;47.554;7.844;2023-10-19T02:44:16;12.52;;;10.13;;
50789;SDS011;37287;47.554;7.844;2023-10-19T02:46:51;10.98;;;8.23;;
50789;SDS011;37287;47.554;7.844;2023-10-19T02:49:27;12.85;;;8.90;;
50789;SDS011;37287;47.554;7.844;2023-10-19T02:51:57;11.18;;;8.38;;
50789;SDS011;37287;47.554;7.844;2023-10-19T02:54:30;12.35;;;9.93;;
50789;SDS011;37287;47.554;7.844;2023-10-19T02:57:01;12.65;;;8.93;;
50789;SDS011;37287;47.554;7.844;2023-10-19T02:59:34;10.27;;;8.18;;
50789;SDS011;37287;47.554;7.844;2023-10-19T03:02:01;9.82;;;8.38;;
50789;SDS011;37287;47.554;7.844;2023-10-19T03:04:38;14.85;;;10.75;;
50789;SDS011;37287;47.554;7.844;2023-10-19T03:07:06;14.48;;;10.15;;
50789;SDS011;37287;47.554;7.844;2023-10-19T03:09:41;12.60;;;9.98;;
50789;SDS011;37287;47.554;7.844;2023-10-19T03:12:15;14.68;;;10.90;;
50789;SDS011;37287;47.554;7.844;2023-10-19T03:14:45;15.13;;;11.98;;
50789;SDS011;37287;47.554;7.844;2023-10-19T03:17:14;12.70;;;11.25;;
50789;SDS011;37287;47.554;7.844;2023-10-19T03:19:42;13.95;;;11.82;;
50789;SDS011;37287;47.554;7.844;2023-10-19T03:22:11;12.52;;;10.93;;
50789;SDS011;37287;47.554;7.844;2023-10-19T03:24:38;16.45;;;13.20;;
50789;SDS011;37287;47.554;7.844;2023-10-19T03:27:11;15.05;;;11.65;;
50789;SDS011;37287;47.554;7.844;2023-10-19T03:30:00;14.80;;;11.95;;
50789;SDS011;37287;47.554;7.844;2023-10-19T03:32:27;15.75;;;12.15;;
50789;SDS011;37287;47.554;7.844;2023-10-19T03:34:59;12.52;;;10.82;;
50789;SDS011;37287;47.554;7.844;2023-10-19T03:37:28;17.30;;;12.13;;
50789;SDS011;37287;47.554;7.844;2023-10-19T03:39:58;16.42;;;12.02;;
50789;SDS011;37287;47.554;7.844;2023-10-19T03:42:25;13.50;;;10.77;;
50789;SDS011;37287;47.554;7.844;2023-10-19T03:44:59;12.70;;;10.82;;
50789;SDS011;37287;47.554;7.844;2023-10-19T03:47:28;14.90;;;12.27;;
50789;SDS011;37287;47.554;7.844;2023-10-19T03:50:02;13.55;;;11.70;;
50789;SDS011;37287;47.554;7.844;2023-10-19T03:52:37;18.35;;;13.75;;
50789;SDS011;37287;47.554;7.844;2023-10-19T03:55:08;15.13;;;13.07;;
50789;SDS011;37287;47.554;7.844;2023-10-19T03:57:38;18.75;;;13.32;;
50789;SDS011;37287;47.554;7.844;2023-10-19T04:00:19;16.48;;;12.77;;
50789;SDS011;37287;47.554;7.844;2023-10-19T04:02:48;19.08;;;14.70;;
50789;SDS011;37287;47.554;7.844;2023-10-19T04:05:17;16.10;;;13.23;;
50789;SDS011;37287;47.554;7.844;2023-10-19T04:07:49;17.63;;;14.52;;
50789;SDS011;37287;47.554;7.844;2023-10-19T04:10:19;18.02;;;13.95;;
50789;SDS011;37287;47.554;7.844;2023-10-19T04:13:01;16.90;;;12.35;;
50789;SDS011;37287;47.554;7.844;2023-10-19T04:15:28;14.68;;;11.75;;
50789;SDS011;37287;47.554;7.844;2023-10-19T04:18:02;13.50;;;11.20;;
50789;SDS011;37287;47.554;7.844;2023-10-19T04:20:37;14.40;;;10.67;;
50789;SDS011;37287;47.554;7.844;2023-10-19T04:23:18;12.20;;;10.10;;
50789;SDS011;37287;47.554;7.844;2023-10-19T04:25:47;11.23;;;9.05;;
50789;SDS011;37287;47.554;7.844;2023-10-19T04:28:14;11.70;;;9.95;;
50789;SDS011;37287;47.554;7.844;2023-10-19T04:30:41;12.32;;;10.88;;
50789;SDS011;37287;47.554;7.844;2023-10-19T04:33:07;12.50;;;10.52;;
50789;SDS011;37287;47.554;7.844;2023-10-19T04:35:37;13.95;;;11.80;;
50789;SDS011;37287;47.554;7.844;2023-10-19T04:38:10;15.40;;;11.98;;
50789;SDS011;37287;47.554;7.844;2023-10-19T04:40:37;14.48;;;11.77;;
50789;SDS011;37287;47.554;7.844;2023-10-19T04:43:03;15.10;;;12.55;;
50789;SDS011;37287;47.554;7.844;2023-10-19T04:45:32;15.05;;;11.75;;
50789;SDS011;37287;47.554;7.844;2023-10-19T04:47:59;15.05;;;12.52;;
50789;SDS011;37287;47.554;7.844;2023-10-19T04:50:25;16.25;;;12.90;;
50789;SDS011;37287;47.554;7.844;2023-10-19T04:52:54;18.08;;;11.65;;
50789;SDS011;37287;47.554;7.844;2023-10-19T04:55:20;14.68;;;12.07;;
50789;SDS011;37287;47.554;7.844;2023-10-19T04:57:47;13.82;;;10.90;;
50789;SDS011;37287;47.554;7.844;2023-10-19T05:00:25;15.05;;;12.43;;
50789;SDS011;37287;47.554;7.844;2023-10-19T05:02:54;15.25;;;12.48;;
50789;SDS011;37287;47.554;7.844;2023-10-19T05:05:21;15.75;;;10.98;;
50789;SDS011;37287;47.554;7.844;2023-10-19T05:07:50;14.35;;;11.75;;
50789;SDS011;37287;47.554;7.844;2023-10-19T05:10:18;13.50;;;11.05;;
50789;SDS011;37287;47.554;7.844;2023-10-19T05:12:48;13.80;;;11.95;;
50789;SDS011;37287;47.554;7.844;2023-10-19T05:15:15;14.55;;;11.00;;
50789;SDS011;37287;47.554;7.844;2023-10-19T05:17:42;15.68;;;11.73;;
50789;SDS011;37287;47.554;7.844;2023-10-19T05:20:08;20.40;;;12.10;;
50789;SDS011;37287;47.554;7.844;2023-10-19T05:22:36;15.23;;;12.60;;
50789;SDS011;37287;47.554;7.844;2023-10-19T05:25:03;18.88;;;12.52;;
50789;SDS011;37287;47.554;7.844;2023-10-19T05:27:30;15.52;;;12.40;;
50789;SDS011;37287;47.554;7.844;2023-10-19T05:29:56;15.75;;;12.88;;
50789;SDS011;37287;47.554;7.844;2023-10-19T05:32:23;18.48;;;13.10;;
50789;SDS011;37287;47.554;7.844;2023-10-19T05:34:51;17.35;;;13.40;;
50789;SDS011;37287;47.554;7.844;2023-10-19T05:37:17;15.48;;;11.85;;
50789;SDS011;37287;47.554;7.844;2023-10-19T05:39:47;17.08;;;13.00;;
50789;SDS011;37287;47.554;7.844;2023-10-19T05:42:18;14.98;;;11.40;;
50789;SDS011;37287;47.554;7.844;2023-10-19T05:44:46;15.88;;;12.43;;
50789;SDS011;37287;47.554;7.844;2023-10-19T05:47:13;16.98;;;13.57;;
50789;SDS011;37287;47.554;7.844;2023-10-19T05:49:39;18.08;;;13.38;;
50789;SDS011;37287;47.554;7.844;2023-10-19T05:52:19;16.45;;;13.10;;
50789;SDS011;37287;47.554;7.844;2023-10-19T05:54:46;17.10;;;13.88;;
50789;SDS011;37287;47.554;7.844;2023-10-19T05:57:12;16.77;;;13.63;;
50789;SDS011;37287;47.554;7.844;2023-10-19T05:59:41;17.00;;;12.57;;
50789;SDS011;37287;47.554;7.844;2023-10-19T06:02:07;15.98;;;12.60;;
50789;SDS011;37287;47.554;7.844;2023-10-19T06:04:34;13.85;;;11.50;;
50789;SDS011;37287;47.554;7.844;2023-10-19T06:07:01;15.02;;;12.27;;
50789;SDS011;37287;47.554;7.844;2023-10-19T06:09:28;15.85;;;12.88;;
50789;SDS011;37287;47.554;7.844;2023-10-19T06:11:57;13.95;;;11.52;;
50789;SDS011;37287;47.554;7.844;2023-10-19T06:14:24;16.00;;;12.20;;
50789;SDS011;37287;47.554;7.844;2023-10-19T06:16:54;13.45;;;10.93;;
50789;SDS011;37287;47.554;7.844;2023-10-19T06:19:20;12.68;;;10.82;;
50789;SDS011;37287;47.554;7.844;2023-10-19T06:21:50;13.40;;;10.55;;
50789;SDS011;37287;47.554;7.844;2023-10-19T06:24:17;14.45;;;11.15;;
50789;SDS011;37287;47.554;7.844;2023-10-19T06:26:45;14.23;;;10.48;;
50789;SDS011;37287;47.554;7.844;2023-10-19T06:29:13;13.93;;;10.80;;
50789;SDS011;37287;47.554;7.844;2023-10-19T06:31:40;15.00;;;11.00;;
50789;SDS011;37287;47.554;7.844;2023-10-19T06:34:06;16.80;;;11.32;;
50789;SDS011;37287;47.554;7.844;2023-10-19T06:36:34;13.82;;;10.75;;
50789;SDS011;37287;47.554;7.844;2023-10-19T06:39:01;15.38;;;12.27;;
50789;SDS011;37287;47.554;7.844;2023-10-19T06:41:32;13.10;;;11.30;;
50789;SDS011;37287;47.554;7.844;2023-10-19T06:43:59;14.27;;;11.02;;
50789;SDS011;37287;47.554;7.844;2023-10-19T06:46:25;16.27;;;11.88;;
50789;SDS011;37287;47.554;7.844;2023-10-19T06:48:53;15.82;;;12.75;;
50789;SDS011;37287;47.554;7.844;2023-10-19T06:51:24;16.75;;;11.82;;
50789;SDS011;37287;47.554;7.844;2023-10-19T06:53:52;13.43;;;11.40;;
50789;SDS011;37287;47.554;7.844;2023-10-19T06:56:19;16.05;;;11.73;;
50789;SDS011;37287;47.554;7.844;2023-10-19T06:58:46;12.70;;;10.02;;
50789;SDS011;37287;47.554;7.844;2023-10-19T07:01:13;13.05;;;10.93;;
50789;SDS011;37287;47.554;7.844;2023-10-19T07:03:42;14.07;;;10.82;;
50789;SDS011;37287;47.554;7.844;2023-10-19T07:06:10;16.85;;;12.30;;
50789;SDS011;37287;47.554;7.844;2023-10-19T07:08:40;13.27;;;10.65;;
50789;SDS011;37287;47.554;7.844;2023-10-19T07:11:10;14.63;;;11.13;;
50789;SDS011;37287;47.554;7.844;2023-10-19T07:13:38;14.05;;;11.18;;
50789;SDS011;37287;47.554;7.844;2023-10-19T07:16:06;12.30;;;10.35;;
50789;SDS011;37287;47.554;7.844;2023-10-19T07:18:37;11.80;;;9.90;;
50789;SDS011;37287;47.554;7.844;2023-10-19T07:21:10;11.15;;;9.23;;
50789;SDS011;37287;47.554;7.844;2023-10-19T07:23:38;11.60;;;9.57;;
50789;SDS011;37287;47.554;7.844;2023-10-19T07:26:04;11.02;;;9.48;;
50789;SDS011;37287;47.554;7.844;2023-10-19T07:28:33;13.05;;;10.63;;
50789;SDS011;37287;47.554;7.844;2023-10-19T07:31:04;11.55;;;10.30;;
50789;SDS011;37287;47.554;7.844;2023-10-19T07:33:45;12.68;;;10.50;;
50789;SDS011;37287;47.554;7.844;2023-10-19T07:36:13;11.25;;;9.57;;
50789;SDS011;37287;47.554;7.844;2023-10-19T07:38:45;11.60;;;9.85;;
50789;SDS011;37287;47.554;7.844;2023-10-19T07:41:14;12.70;;;10.32;;
50789;SDS011;37287;47.554;7.844;2023-10-19T07:43:40;17.17;;;12.63;;
50789;SDS011;37287;47.554;7.844;2023-10-19T07:46:07;13.57;;;11.65;;
50789;SDS011;37287;47.554;7.844;2023-10-19T07:48:38;11.63;;;9.73;;
50789;SDS011;37287;47.554;7.844;2023-10-19T07:51:05;14.23;;;11.32;;
50789;SDS011;37287;47.554;7.844;2023-10-19T07:53:31;14.32;;;10.27;;
50789;SDS011;37287;47.554;7.844;2023-10-19T07:55:58;11.80;;;10.30;;
50789;SDS011;37287;47.554;7.844;2023-10-19T07:58:25;12.23;;;10.23;;
50789;SDS011;37287;47.554;7.844;2023-10-19T08:00:53;11.18;;;8.80;;
50789;SDS011;37287;47.554;7.844;2023-10-19T08:03:22;12.68;;;10.23;;
50789;SDS011;37287;47.554;7.844;2023-10-19T08:05:48;9.10;;;8.13;;
50789;SDS011;37287;47.554;7.844;2023-10-19T08:08:17;8.77;;;7.55;;
50789;SDS011;37287;47.554;7.844;2023-10-19T08:10:43;8.77;;;7.85;;
50789;SDS011;37287;47.554;7.844;2023-10-19T08:13:12;10.05;;;7.78;;
50789;SDS011;37287;47.554;7.844;2023-10-19T08:15:39;10.05;;;8.63;;
50789;SDS011;37287;47.554;7.844;2023-10-19T08:18:06;8.18;;;7.28;;
50789;SDS011;37287;47.554;7.844;2023-10-19T08:20:33;9.13;;;7.80;;
50789;SDS011;37287;47.554;7.844;2023-10-19T08:23:03;7.63;;;6.68;;
50789;SDS011;37287;47.554;7.844;2023-10-19T08:25:32;8.30;;;7.45;;
50789;SDS011;37287;47.554;7.844;2023-10-19T08:28:18;8.30;;;7.38;;
50789;SDS011;37287;47.554;7.844;2023-10-19T08:30:50;9.88;;;8.13;;
50789;SDS011;37287;47.554;7.844;2023-10-19T08:33:24;9.18;;;7.38;;
50789;SDS011;37287;47.554;7.844;2023-10-19T08:35:57;9.23;;;7.40;;
50789;SDS011;37287;47.554;7.844;2023-10-19T08:38:24;7.93;;;6.70;;
50789;SDS011;37287;47.554;7.844;2023-10-19T08:40:50;7.35;;;6.15;;
50789;SDS011;37287;47.554;7.844;2023-10-19T08:43:18;7.20;;;6.30;;
50789;SDS011;37287;47.554;7.844;2023-10-19T08:45:45;7.72;;;6.43;;
50789;SDS011;37287;47.554;7.844;2023-10-19T08:48:14;7.20;;;5.85;;
50789;SDS011;37287;47.554;7.844;2023-10-19T08:50:40;8.07;;;6.30;;
50789;SDS011;37287;47.554;7.844;2023-10-19T08:53:08;6.63;;;5.47;;
50789;SDS011;37287;47.554;7.844;2023-10-19T08:55:35;7.35;;;5.97;;
50789;SDS011;37287;47.554;7.844;2023-10-19T08:58:14;9.90;;;5.70;;
50789;SDS011;37287;47.554;7.844;2023-10-19T09:00:48;11.77;;;7.90;;
50789;SDS011;37287;47.554;7.844;2023-10-19T09:03:21;8.32;;;6.85;;
50789;SDS011;37287;47.554;7.844;2023-10-19T09:05:55;10.18;;;7.00;;
50789;SDS011;37287;47.554;7.844;2023-10-19T09:08:24;9.82;;;7.57;;
50789;SDS011;37287;47.554;7.844;2023-10-19T09:10:51;8.18;;;7.05;;
50789;SDS011;37287;47.554;7.844;2023-10-19T09:13:20;9.35;;;7.68;;
50789;SDS011;37287;47.554;7.844;2023-10-19T09:15:50;11.32;;;8.65;;
50789;SDS011;37287;47.554;7.844;2023-10-19T09:18:21;11.23;;;8.75;;
50789;SDS011;37287;47.554;7.844;2023-10-19T09:20:55;11.43;;;8.73;;
50789;SDS011;37287;47.554;7.844;2023-10-19T09:23:29;9.75;;;8.25;;
50789;SDS011;37287;47.554;7.844;2023-10-19T09:25:59;15.10;;;9.52;;
50789;SDS011;37287;47.554;7.844;2023-10-19T09:28:30;10.88;;;8.68;;
50789;SDS011;37287;47.554;7.844;2023-10-19T09:31:00;9.77;;;8.40;;
50789;SDS011;37287;47.554;7.844;2023-10-19T09:33:27;10.80;;;9.32;;
50789;SDS011;37287;47.554;7.844;2023-10-19T09:35:56;11.07;;;8.25;;
50789;SDS011;37287;47.554;7.844;2023-10-19T09:38:29;13.38;;;9.80;;
50789;SDS011;37287;47.554;7.844;2023-10-19T09:40:55;11.48;;;9.20;;
50789;SDS011;37287;47.554;7.844;2023-10-19T09:43:33;8.77;;;7.72;;
50789;SDS011;37287;47.554;7.844;2023-10-19T09:46:08;10.07;;;8.02;;
50789;SDS011;37287;47.554;7.844;2023-10-19T09:48:39;13.52;;;9.77;;
50789;SDS011;37287;47.554;7.844;2023-10-19T09:51:14;9.52;;;8.50;;
50789;SDS011;37287;47.554;7.844;2023-10-19T09:53:44;11.35;;;9.35;;
50789;SDS011;37287;47.554;7.844;2023-10-19T09:56:17;11.23;;;9.15;;
50789;SDS011;37287;47.554;7.844;2023-10-19T09:58:53;11.82;;;9.55;;
50789;SDS011;37287;47.554;7.844;2023-10-19T10:01:24;10.57;;;8.63;;
50789;SDS011;37287;47.554;7.844;2023-10-19T10:03:54;11.82;;;9.25;;
50789;SDS011;37287;47.554;7.844;2023-10-19T10:06:30;10.63;;;8.85;;
50789;SDS011;37287;47.554;7.844;2023-10-19T10:09:20;8.85;;;7.95;;
50789;SDS011;37287;47.554;7.844;2023-10-19T10:11:51;11.25;;;8.30;;
50789;SDS011;37287;47.554;7.844;2023-10-19T10:14:22;11.48;;;9.45;;
50789;SDS011;37287;47.554;7.844;2023-10-19T10:17:03;11.00;;;8.98;;
50789;SDS011;37287;47.554;7.844;2023-10-19T10:19:40;10.02;;;8.60;;
50789;SDS011;37287;47.554;7.844;2023-10-19T10:22:11;10.43;;;9.02;;
50789;SDS011;37287;47.554;7.844;2023-10-19T10:24:41;10.80;;;9.15;;
50789;SDS011;37287;47.554;7.844;2023-10-19T10:27:15;9.82;;;8.15;;
50789;SDS011;37287;47.554;7.844;2023-10-19T10:29:55;10.77;;;9.48;;
50789;SDS011;37287;47.554;7.844;2023-10-19T10:32:43;8.20;;;7.25;;
50789;SDS011;37287;47.554;7.844;2023-10-19T10:35:48;9.75;;;7.30;;
50789;SDS011;37287;47.554;7.844;2023-10-19T10:38:04;9.95;;;7.22;;
50789;SDS011;37287;47.554;7.844;2023-10-19T10:40:50;9.27;;;7.65;;
50789;SDS011;37287;47.554;7.844;2023-10-19T10:43:18;9.73;;;7.97;;
50789;SDS011;37287;47.554;7.844;2023-10-19T10:45:45;8.45;;;7.03;;
50789;SDS011;37287;47.554;7.844;2023-10-19T10:48:18;7.65;;;6.88;;
50789;SDS011;37287;47.554;7.844;2023-10-19T10:50:45;8.32;;;6.25;;
50789;SDS011;37287;47.554;7.844;2023-10-19T10:53:13;6.85;;;5.85;;
50789;SDS011;37287;47.554;7.844;2023-10-19T10:55:50;6.32;;;5.68;;
50789;SDS011;37287;47.554;7.844;2023-10-19T10:58:17;6.95;;;6.25;;
50789;SDS011;37287;47.554;7.844;2023-10-19T11:00:46;7.95;;;5.10;;
50789;SDS011;37287;47.554;7.844;2023-10-19T11:03:18;6.55;;;5.90;;
50789;SDS011;37287;47.554;7.844;2023-10-19T11:05:45;6.40;;;5.68;;
50789;SDS011;37287;47.554;7.844;2023-10-19T11:08:15;6.15;;;5.28;;
50789;SDS011;37287;47.554;7.844;2023-10-19T11:10:44;6.43;;;5.82;;
50789;SDS011;37287;47.554;7.844;2023-10-19T11:13:14;6.47;;;5.88;;
50789;SDS011;37287;47.554;7.844;2023-10-19T11:15:54;6.20;;;5.60;;
50789;SDS011;37287;47.554;7.844;2023-10-19T11:18:34;6.60;;;5.75;;
50789;SDS011;37287;47.554;7.844;2023-10-19T11:21:09;6.60;;;5.72;;
50789;SDS011;37287;47.554;7.844;2023-10-19T11:23:48;6.00;;;5.40;;
50789;SDS011;37287;47.554;7.844;2023-10-19T11:26:16;8.43;;;6.35;;
50789;SDS011;37287;47.554;7.844;2023-10-19T11:28:43;8.50;;;6.57;;
50789;SDS011;37287;47.554;7.844;2023-10-19T11:31:17;6.40;;;5.63;;
50789;SDS011;37287;47.554;7.844;2023-10-19T11:36:20;6.38;;;5.68;;
50789;SDS011;37287;47.554;7.844;2023-10-19T11:38:50;6.45;;;5.65;;
50789;SDS011;37287;47.554;7.844;2023-10-19T11:41:20;5.55;;;4.63;;
50789;SDS011;37287;47.554;7.844;2023-10-19T11:43:48;5.78;;;5.18;;
50789;SDS011;37287;47.554;7.844;2023-10-19T11:46:18;5.78;;;4.90;;
50789;SDS011;37287;47.554;7.844;2023-10-19T11:48:47;6.28;;;4.85;;
50789;SDS011;37287;47.554;7.844;2023-10-19T11:51:13;5.00;;;4.30;;
50789;SDS011;37287;47.554;7.844;2023-10-19T11:53:41;5.85;;;4.40;;
50789;SDS011;37287;47.554;7.844;2023-10-19T11:56:10;6.53;;;5.43;;
50789;SDS011;37287;47.554;7.844;2023-10-19T11:58:42;8.95;;;6.88;;
50789;SDS011;37287;47.554;7.844;2023-10-19T12:01:12;9.07;;;6.95;;
50789;SDS011;37287;47.554;7.844;2023-10-19T12:03:39;10.45;;;7.28;;
50789;SDS011;37287;47.554;7.844;2023-10-19T12:06:07;9.40;;;7.72;;
50789;SDS011;37287;47.554;7.844;2023-10-19T12:08:35;12.35;;;8.77;;
50789;SDS011;37287;47.554;7.844;2023-10-19T12:11:02;13.02;;;8.85;;
50789;SDS011;37287;47.554;7.844;2023-10-19T12:13:30;12.30;;;8.35;;
50789;SDS011;37287;47.554;7.844;2023-10-19T12:15:59;12.85;;;8.90;;
50789;SDS011;37287;47.554;7.844;2023-10-19T12:18:26;13.93;;;8.57;;
50789;SDS011;37287;47.554;7.844;2023-10-19T12:20:53;13.32;;;8.13;;
50789;SDS011;37287;47.554;7.844;2023-10-19T12:23:23;8.80;;;7.82;;
50789;SDS011;37287;47.554;7.844;2023-10-19T12:25:52;11.82;;;9.75;;
50789;SDS011;37287;47.554;7.844;2023-10-19T12:28:23;13.98;;;10.15;;
50789;SDS011;37287;47.554;7.844;2023-10-19T12:30:51;12.88;;;9.52;;
50789;SDS011;37287;47.554;7.844;2023-10-19T12:33:18;11.70;;;9.30;;
50789;SDS011;37287;47.554;7.844;2023-10-19T12:35:46;12.23;;;10.10;;
50789;SDS011;37287;47.554;7.844;2023-10-19T12:38:23;14.05;;;10.02;;
50789;SDS011;37287;47.554;7.844;2023-10-19T12:40:50;12.90;;;9.98;;
50789;SDS011;37287;47.554;7.844;2023-10-19T12:43:17;12.43;;;9.25;;
50789;SDS011;37287;47.554;7.844;2023-10-19T12:45:51;13.20;;;10.60;;
50789;SDS011;37287;47.554;7.844;2023-10-19T12:48:24;15.20;;;10.35;;
50789;SDS011;37287;47.554;7.844;2023-10-19T12:51:01;12.50;;;9.50;;
50789;SDS011;37287;47.554;7.844;2023-10-19T12:53:38;11.35;;;9.15;;
50789;SDS011;37287;47.554;7.844;2023-10-19T12:56:06;11.95;;;9.65;;
50789;SDS011;37287;47.554;7.844;2023-10-19T12:58:40;9.88;;;8.57;;
50789;SDS011;37287;47.554;7.844;2023-10-19T13:01:07;9.13;;;7.45;;
50789;SDS011;37287;47.554;7.844;2023-10-19T13:03:45;10.13;;;7.32;;
50789;SDS011;37287;47.554;7.844;2023-10-19T13:06:13;7.45;;;6.65;;
50789;SDS011;37287;47.554;7.844;2023-10-19T13:08:40;7.35;;;6.50;;
50789;SDS011;37287;47.554;7.844;2023-10-19T13:11:07;7.32;;;6.35;;
50789;SDS011;37287;47.554;7.844;2023-10-19T13:13:42;8.23;;;5.60;;
50789;SDS011;37287;47.554;7.844;2023-10-19T13:16:15;6.53;;;5.15;;
50789;SDS011;37287;47.554;7.844;2023-10-19T13:18:42;5.78;;;5.15;;
50789;SDS011;37287;47.554;7.844;2023-10-19T13:21:10;6.22;;;4.97;;
50789;SDS011;37287;47.554;7.844;2023-10-19T13:23:38;9.20;;;5.78;;
50789;SDS011;37287;47.554;7.844;2023-10-19T13:26:05;6.28;;;5.28;;
50789;SDS011;37287;47.554;7.844;2023-10-19T13:28:45;8.68;;;5.18;;
50789;SDS011;37287;47.554;7.844;2023-10-19T13:31:13;6.45;;;5.38;;
50789;SDS011;37287;47.554;7.844;2023-10-19T13:33:40;7.18;;;5.68;;
50789;SDS011;37287;47.554;7.844;2023-10-19T13:36:13;7.88;;;5.32;;
50789;SDS011;37287;47.554;7.844;2023-10-19T13:38:40;6.78;;;6.07;;
50789;SDS011;37287;47.554;7.844;2023-10-19T13:41:07;7.35;;;6.57;;
50789;SDS011;37287;47.554;7.844;2023-10-19T13:43:37;7.95;;;6.25;;
50789;SDS011;37287;47.554;7.844;2023-10-19T13:46:05;7.90;;;6.80;;
50789;SDS011;37287;47.554;7.844;2023-10-19T13:48:35;8.13;;;6.38;;
50789;SDS011;37287;47.554;7.844;2023-10-19T13:51:05;9.50;;;7.18;;
50789;SDS011;37287;47.554;7.844;2023-10-19T13:53:41;10.75;;;8.20;;
50789;SDS011;37287;47.554;7.844;2023-10-19T13:56:13;10.10;;;7.82;;
50789;SDS011;37287;47.554;7.844;2023-10-19T13:58:41;9.45;;;7.90;;
50789;SDS011;37287;47.554;7.844;2023-10-19T14:01:13;12.98;;;8.10;;
50789;SDS011;37287;47.554;7.844;2023-10-19T14:03:43;9.77;;;7.95;;
50789;SDS011;37287;47.554;7.844;2023-10-19T14:06:12;12.18;;;7.72;;
50789;SDS011;37287;47.554;7.844;2023-10-19T14:08:40;10.00;;;7.13;;
50789;SDS011;37287;47.554;7.844;2023-10-19T14:11:08;10.10;;;7.55;;
50789;SDS011;37287;47.554;7.844;2023-10-19T14:13:38;9.60;;;8.13;;
50789;SDS011;37287;47.554;7.844;2023-10-19T14:16:09;11.68;;;7.95;;
50789;SDS011;37287;47.554;7.844;2023-10-19T14:18:36;12.82;;;9.00;;
50789;SDS011;37287;47.554;7.844;2023-10-19T14:21:16;10.13;;;8.38;;
50789;SDS011;37287;47.554;7.844;2023-10-19T14:23:44;12.43;;;9.80;;
50789;SDS011;37287;47.554;7.844;2023-10-19T14:26:12;15.05;;;10.32;;
50789;SDS011;37287;47.554;7.844;2023-10-19T14:28:41;17.52;;;11.77;;
50789;SDS011;37287;47.554;7.844;2023-10-19T14:31:14;13.93;;;10.30;;
50789;SDS011;37287;47.554;7.844;2023-10-19T14:33:40;15.23;;;10.43;;
50789;SDS011;37287;47.554;7.844;2023-10-19T14:36:08;14.32;;;11.02;;
50789;SDS011;37287;47.554;7.844;2023-10-19T14:38:38;16.80;;;11.77;;
50789;SDS011;37287;47.554;7.844;2023-10-19T14:41:06;15.90;;;12.75;;
50789;SDS011;37287;47.554;7.844;2023-10-19T14:43:36;17.52;;;11.93;;
50789;SDS011;37287;47.554;7.844;2023-10-19T14:46:07;19.20;;;14.00;;
50789;SDS011;37287;47.554;7.844;2023-10-19T14:48:34;16.95;;;13.63;;
50789;SDS011;37287;47.554;7.844;2023-10-19T14:51:02;23.75;;;14.88;;
50789;SDS011;37287;47.554;7.844;2023-10-19T14:53:36;20.77;;;14.90;;
50789;SDS011;37287;47.554;7.844;2023-10-19T14:56:03;23.13;;;15.25;;
50789;SDS011;37287;47.554;7.844;2023-10-19T14:58:30;18.67;;;13.68;;